createdAt,value
2022-12-18T00:03:19.272Z,10.15
2022-12-18T00:08:21.237Z,10.57
2022-12-18T00:13:22.707Z,10.40
2022-12-18T00:18:24.117Z,11.15
2022-12-18T00:23:25.528Z,10.00
2022-12-18T00:28:26.993Z,9.25
2022-12-18T00:33:28.968Z,9.30
2022-12-18T00:38:30.394Z,9.02
2022-12-18T00:43:35.656Z,8.25
2022-12-18T00:48:37.306Z,8.15
2022-12-18T00:53:40.118Z,9.65
2022-12-18T00:58:41.932Z,9.82
2022-12-18T01:03:43.533Z,8.63
2022-12-18T01:08:45.662Z,10.00
2022-12-18T01:13:47.882Z,10.02
2022-12-18T01:18:53.739Z,8.98
2022-12-18T01:23:56.415Z,9.13
2022-12-18T01:28:59.062Z,7.72
2022-12-18T01:34:06.454Z,7.32
2022-12-18T01:39:15.114Z,8.20
2022-12-18T01:44:55.088Z,6.93
2022-12-18T01:49:59.386Z,7.57
2022-12-18T01:55:02.508Z,6.07
2022-12-18T02:00:30.898Z,7.40
2022-12-18T02:05:58.274Z,7.43
2022-12-18T02:11:26.907Z,7.03
2022-12-18T02:16:48.586Z,7.57
2022-12-18T02:22:08.434Z,7.15
2022-12-18T02:27:11.921Z,6.35
2022-12-18T02:32:18.717Z,7.85
2022-12-18T02:37:21.846Z,6.35
2022-12-18T02:42:25.282Z,4.95
2022-12-18T02:47:33.489Z,5.93
2022-12-18T02:52:55.507Z,5.22
2022-12-18T02:58:01.481Z,6.10
2022-12-18T03:03:20.450Z,5.28
2022-12-18T03:08:26.091Z,5.35
2022-12-18T03:13:37.145Z,5.85
2022-12-18T03:18:53.210Z,6.35
2022-12-18T03:23:56.479Z,6.10
2022-12-18T03:29:09.014Z,6.60
2022-12-18T03:34:20.778Z,5.95
2022-12-18T03:39:22.958Z,5.65
2022-12-18T03:44:40.798Z,5.22
2022-12-18T03:49:58.523Z,5.05
2022-12-18T03:55:04.169Z,4.80
2022-12-18T04:00:15.335Z,5.07
2022-12-18T04:05:30.822Z,4.75
2022-12-18T04:10:33.038Z,4.07
2022-12-18T04:15:39.528Z,4.53
2022-12-18T04:20:46.227Z,4.80
2022-12-18T04:25:48.278Z,3.95
2022-12-18T04:30:56.114Z,4.30
2022-12-18T04:35:57.817Z,4.10
2022-12-18T04:41:00.098Z,4.13
2022-12-18T04:46:07.198Z,3.83
2022-12-18T04:51:08.779Z,3.30
2022-12-18T04:56:13.957Z,3.60
2022-12-18T05:01:17.364Z,3.67
2022-12-18T05:06:19.093Z,4.28
2022-12-18T05:11:20.495Z,3.92
2022-12-18T05:16:21.921Z,3.53
2022-12-18T05:21:23.387Z,3.45
2022-12-18T05:26:24.824Z,3.05
2022-12-18T05:31:26.251Z,3.85
2022-12-18T05:36:27.756Z,3.55
2022-12-18T05:41:29.619Z,4.15
2022-12-18T05:46:31.086Z,3.45
2022-12-18T05:51:32.538Z,3.90
2022-12-18T05:56:33.960Z,3.58
2022-12-18T06:01:35.663Z,3.78
2022-12-18T06:06:37.649Z,3.78
2022-12-18T06:11:39.967Z,3.30
2022-12-18T06:16:41.390Z,4.40
2022-12-18T06:21:42.928Z,3.67
2022-12-18T06:26:44.358Z,4.85
2022-12-18T06:31:45.793Z,4.07
2022-12-18T06:36:47.314Z,4.03
2022-12-18T06:41:48.823Z,4.18
2022-12-18T06:46:50.339Z,5.22
2022-12-18T06:51:51.768Z,4.78
2022-12-18T06:56:53.150Z,5.03
2022-12-18T07:01:57.456Z,5.25
2022-12-18T07:06:58.930Z,6.35
2022-12-18T07:12:00.382Z,5.15
2022-12-18T07:17:01.856Z,5.18
2022-12-18T07:22:03.307Z,5.32
2022-12-18T07:27:06.044Z,5.57
2022-12-18T07:32:09.592Z,4.72
2022-12-18T07:37:11.311Z,4.65
2022-12-18T07:42:31.463Z,6.03
2022-12-18T07:47:36.034Z,5.70
2022-12-18T07:52:37.470Z,6.10
2022-12-18T07:57:50.518Z,6.45
2022-12-18T08:02:52.886Z,6.03
2022-12-18T08:07:54.639Z,6.90
2022-12-18T08:13:00.022Z,6.75
2022-12-18T08:18:04.491Z,7.05
2022-12-18T08:23:05.918Z,7.85
2022-12-18T08:28:07.319Z,8.88
2022-12-18T08:33:08.777Z,9.85
2022-12-18T08:38:10.226Z,10.00
2022-12-18T08:43:30.758Z,10.13
2022-12-18T08:48:32.222Z,10.07
2022-12-18T08:53:36.552Z,9.85
2022-12-18T08:58:38.190Z,9.73
2022-12-18T09:03:41.287Z,9.45
2022-12-18T09:08:44.570Z,8.85
2022-12-18T09:13:46.143Z,10.27
2022-12-18T09:18:48.307Z,10.68
2022-12-18T09:23:54.333Z,11.07
2022-12-18T09:28:56.786Z,10.30
2022-12-18T09:33:58.183Z,9.43
2022-12-18T09:39:02.611Z,9.93
2022-12-18T09:44:11.946Z,10.77
2022-12-18T09:49:17.134Z,10.80
2022-12-18T09:54:39.250Z,10.88
2022-12-18T09:59:47.279Z,10.38
2022-12-18T10:05:18.791Z,10.32
2022-12-18T10:10:38.760Z,10.00
2022-12-18T10:15:55.571Z,11.57
2022-12-18T10:21:04.628Z,9.65
2022-12-18T10:26:11.587Z,9.07
2022-12-18T10:31:20.643Z,10.90
2022-12-18T10:36:23.760Z,12.30
2022-12-18T10:41:27.843Z,11.07
2022-12-18T10:46:31.030Z,12.68
2022-12-18T10:51:38.467Z,12.93
2022-12-18T10:56:40.386Z,12.60
2022-12-18T11:01:58.528Z,13.65
2022-12-18T11:07:01.374Z,13.90
2022-12-18T11:12:07.074Z,14.32
2022-12-18T11:17:27.321Z,14.77
2022-12-18T11:22:34.112Z,14.18
2022-12-18T11:27:35.545Z,15.38
2022-12-18T11:32:39.171Z,15.35
2022-12-18T11:37:44.515Z,14.63
2022-12-18T11:42:52.811Z,14.63
2022-12-18T11:48:15.847Z,14.23
2022-12-18T11:53:17.930Z,14.25
2022-12-18T11:58:50.420Z,14.70
2022-12-18T12:04:29.682Z,13.93
2022-12-18T12:09:45.335Z,15.02
2022-12-18T12:15:22.516Z,17.52
2022-12-18T12:21:08.559Z,16.00
2022-12-18T12:26:17.343Z,16.33
2022-12-18T12:31:26.609Z,17.38
2022-12-18T12:36:40.159Z,17.38
2022-12-18T12:42:03.505Z,17.42
2022-12-18T12:47:17.299Z,17.85
2022-12-18T12:52:32.123Z,16.63
2022-12-18T12:57:44.358Z,17.67
2022-12-18T13:03:18.583Z,16.80
2022-12-18T13:08:26.526Z,15.65
2022-12-18T13:13:50.549Z,16.45
2022-12-18T13:18:55.302Z,16.80
2022-12-18T13:23:58.495Z,16.63
2022-12-18T13:29:00.596Z,15.75
2022-12-18T13:34:28.070Z,14.88
2022-12-18T13:39:35.769Z,15.32
2022-12-18T13:44:42.300Z,16.42
2022-12-18T13:49:44.952Z,15.07
2022-12-18T13:54:53.475Z,15.57
2022-12-18T13:59:58.441Z,16.15
2022-12-18T14:05:05.593Z,15.85
2022-12-18T14:20:53.391Z,15.88
2022-12-18T14:25:57.762Z,16.98
2022-12-18T14:31:02.721Z,15.20
2022-12-18T14:36:06.328Z,16.00
2022-12-18T14:41:14.514Z,15.75
2022-12-18T14:46:31.165Z,15.40
2022-12-18T14:51:34.996Z,13.50
2022-12-18T14:56:44.360Z,14.35
2022-12-18T15:02:00.863Z,17.42
2022-12-18T15:07:12.738Z,12.32
2022-12-18T15:12:43.522Z,12.40
2022-12-18T15:17:45.086Z,12.25
2022-12-18T15:22:48.503Z,11.70
2022-12-18T15:27:50.295Z,11.70
2022-12-18T15:32:53.191Z,12.50
2022-12-18T15:37:54.683Z,12.38
2022-12-18T15:43:14.955Z,12.32
2022-12-18T15:48:23.141Z,12.57
2022-12-18T15:53:27.244Z,13.15
2022-12-18T15:58:28.798Z,12.88
2022-12-18T16:03:30.415Z,13.40
2022-12-18T16:08:32.637Z,13.30
2022-12-18T16:13:34.083Z,14.77
2022-12-18T16:18:36.163Z,15.10
2022-12-18T16:23:37.718Z,14.35
2022-12-18T16:28:43.828Z,12.20
2022-12-18T16:33:49.697Z,12.18
2022-12-18T16:38:51.179Z,13.27
2022-12-18T16:43:55.030Z,14.43
2022-12-18T16:48:59.340Z,13.63
2022-12-18T16:54:02.989Z,13.32
2022-12-18T16:59:09.890Z,15.23
2022-12-18T17:04:11.520Z,13.68
2022-12-18T17:09:15.831Z,15.75
2022-12-18T17:14:20.307Z,17.35
2022-12-18T17:19:24.823Z,14.85
2022-12-18T17:24:30.078Z,13.80
2022-12-18T17:29:34.782Z,12.88
2022-12-18T17:34:36.991Z,12.07
2022-12-18T17:39:39.139Z,13.90
2022-12-18T17:44:40.627Z,13.88
2022-12-18T17:49:42.397Z,13.70
2022-12-18T17:54:44.070Z,15.88
2022-12-18T17:59:45.486Z,14.52
2022-12-18T18:04:46.903Z,15.93
2022-12-18T18:09:48.321Z,14.57
2022-12-18T18:14:49.730Z,21.45
2022-12-18T18:19:51.550Z,15.07
2022-12-18T18:24:53.091Z,17.17
2022-12-18T18:29:54.670Z,13.95
2022-12-18T18:34:56.070Z,13.40
2022-12-18T18:39:57.534Z,15.32
2022-12-18T18:45:02.084Z,14.02
2022-12-18T18:50:03.840Z,15.63
2022-12-18T18:55:16.262Z,15.27
2022-12-18T19:00:25.611Z,15.63
2022-12-18T19:05:31.086Z,15.95
2022-12-18T19:10:32.571Z,14.70
2022-12-18T19:15:34.474Z,13.60
2022-12-18T19:20:36.407Z,15.20
2022-12-18T19:25:42.137Z,14.27
2022-12-18T19:30:45.017Z,13.25
2022-12-18T19:35:46.513Z,13.67
2022-12-18T19:40:48.534Z,13.88
2022-12-18T19:45:54.977Z,14.18
2022-12-18T19:50:56.507Z,14.20
2022-12-18T19:55:58.542Z,15.18
2022-12-18T20:01:00.075Z,13.43
2022-12-18T20:06:46.423Z,12.50
2022-12-18T20:11:48.132Z,11.85
2022-12-18T20:16:49.723Z,11.95
2022-12-18T20:21:51.727Z,12.55
2022-12-18T20:26:53.999Z,13.57
2022-12-18T20:31:55.462Z,13.13
2022-12-18T20:36:56.981Z,12.38
2022-12-18T20:41:58.792Z,13.27
2022-12-18T20:47:07.730Z,11.90
2022-12-18T20:52:10.191Z,11.82
2022-12-18T20:57:11.709Z,13.13
2022-12-18T21:02:14.059Z,11.63
2022-12-18T21:07:16.028Z,11.77
2022-12-18T21:12:45.278Z,11.73
2022-12-18T21:18:02.467Z,11.57
2022-12-18T21:23:16.049Z,10.43
2022-12-18T21:28:18.432Z,11.27
2022-12-18T21:33:20.184Z,9.15
2022-12-18T21:38:21.663Z,9.95
2022-12-18T21:43:41.946Z,10.50
2022-12-18T21:48:43.840Z,9.50
2022-12-18T21:53:45.321Z,10.50
2022-12-18T22:03:58.846Z,9.38
2022-12-18T22:09:00.447Z,10.45
2022-12-18T22:14:01.945Z,9.98
2022-12-18T22:19:04.823Z,10.40
2022-12-18T22:24:29.215Z,11.30
2022-12-18T22:29:49.082Z,10.77
2022-12-18T22:34:50.497Z,12.35
2022-12-18T22:39:52.012Z,11.10
2022-12-18T22:44:53.953Z,10.73
2022-12-18T22:49:55.463Z,10.98
2022-12-18T22:54:56.859Z,10.48
2022-12-18T22:59:58.265Z,11.68
2022-12-18T23:05:00.422Z,11.18
2022-12-18T23:10:02.411Z,12.97
2022-12-18T23:15:05.140Z,11.85
2022-12-18T23:20:07.388Z,13.10
2022-12-18T23:25:09.862Z,11.70
2022-12-18T23:30:12.143Z,12.13
2022-12-18T23:35:15.567Z,12.82
2022-12-18T23:40:17.463Z,13.32
2022-12-18T23:45:18.895Z,12.25
2022-12-18T23:50:24.521Z,13.35
2022-12-18T23:55:31.239Z,13.07
